createdAt,value
2023-02-07T00:02:17.506Z,-4.02
2023-02-07T00:04:46.564Z,-3.52
2023-02-07T00:07:15.935Z,-3.26
2023-02-07T00:09:44.613Z,-3.31
2023-02-07T00:12:13.509Z,-3.49
2023-02-07T00:14:42.597Z,-3.64
2023-02-07T00:17:11.229Z,-3.86
2023-02-07T00:19:39.672Z,-4.01
2023-02-07T00:22:08.347Z,-3.93
2023-02-07T00:24:36.970Z,-3.38
2023-02-07T00:27:07.877Z,-3.34
2023-02-07T00:29:37.583Z,-3.39
2023-02-07T00:32:06.096Z,-3.63
2023-02-07T00:34:39.765Z,-3.75
2023-02-07T00:37:10.084Z,-3.82
2023-02-07T00:39:41.130Z,-3.98
2023-02-07T00:42:09.817Z,-3.54
2023-02-07T00:44:39.012Z,-3.07
2023-02-07T00:47:07.490Z,-3.25
2023-02-07T00:49:35.972Z,-3.34
2023-02-07T00:52:04.861Z,-3.43
2023-02-07T00:54:33.245Z,-3.57
2023-02-07T00:57:02.028Z,-3.74
2023-02-07T00:59:30.711Z,-3.72
2023-02-07T01:01:59.811Z,-3.21
2023-02-07T01:04:29.957Z,-2.97
2023-02-07T01:06:59.023Z,-2.87
2023-02-07T01:09:27.633Z,-3.13
2023-02-07T01:11:56.709Z,-3.40
2023-02-07T01:14:27.850Z,-3.57
2023-02-07T01:24:38.461Z,-2.74
2023-02-07T01:27:07.176Z,-2.98
2023-02-07T01:29:35.730Z,-3.12
2023-02-07T01:32:05.029Z,-3.23
2023-02-07T01:34:34.041Z,-3.45
2023-02-07T01:37:02.303Z,-3.59
2023-02-07T01:39:31.184Z,-3.28
2023-02-07T01:41:59.781Z,-2.84
2023-02-07T01:44:28.987Z,-3.02
2023-02-07T01:46:57.582Z,-3.00
2023-02-07T01:49:27.904Z,-3.22
2023-02-07T01:52:02.936Z,-3.28
2023-02-07T01:54:33.857Z,-3.36
2023-02-07T01:57:07.651Z,-3.22
2023-02-07T01:59:38.867Z,-2.85
2023-02-07T02:02:07.166Z,-2.85
2023-02-07T02:04:35.618Z,-2.88
2023-02-07T02:07:04.676Z,-3.07
2023-02-07T02:09:33.228Z,-3.32
2023-02-07T02:12:45.870Z,-3.34
2023-02-07T02:15:38.022Z,-2.94
2023-02-07T02:18:18.957Z,-2.60
2023-02-07T02:21:15.076Z,-2.77
2023-02-07T02:23:51.545Z,-2.97
2023-02-07T02:27:01.764Z,-3.14
2023-02-07T02:30:12.681Z,-3.24
2023-02-07T02:32:53.378Z,-2.86
2023-02-07T02:35:54.289Z,-2.62
2023-02-07T02:38:29.399Z,-2.77
2023-02-07T02:41:03.853Z,-2.92
2023-02-07T02:43:43.797Z,-3.21
2023-02-07T02:46:17.960Z,-3.23
2023-02-07T02:48:46.394Z,-3.23
2023-02-07T02:51:15.387Z,-2.89
2023-02-07T02:53:54.517Z,-2.54
2023-02-07T02:56:35.990Z,-2.70
2023-02-07T02:59:33.583Z,-2.98
2023-02-07T03:02:30.000Z,-3.09
2023-02-07T03:05:18.375Z,-3.22
2023-02-07T03:08:14.268Z,-2.83
2023-02-07T03:10:55.181Z,-2.56
2023-02-07T03:13:45.328Z,-2.60
2023-02-07T03:16:18.868Z,-2.93
2023-02-07T03:18:49.356Z,-3.18
2023-02-07T03:28:59.976Z,-2.63
2023-02-07T03:31:28.967Z,-2.74
2023-02-07T03:34:02.554Z,-2.96
2023-02-07T03:36:34.283Z,-3.16
2023-02-07T03:39:02.694Z,-3.16
2023-02-07T03:41:38.859Z,-2.88
2023-02-07T03:44:07.446Z,-2.65
2023-02-07T03:46:37.095Z,-2.73
2023-02-07T03:49:05.829Z,-2.90
2023-02-07T03:51:37.695Z,-3.06
2023-02-07T03:54:06.189Z,-3.18
2023-02-07T03:56:34.769Z,-3.10
2023-02-07T03:59:03.491Z,-2.74
2023-02-07T04:01:32.239Z,-2.57
2023-02-07T04:04:00.926Z,-2.68
2023-02-07T04:06:30.261Z,-2.79
2023-02-07T04:09:01.601Z,-2.94
2023-02-07T04:11:32.330Z,-3.08
2023-02-07T04:14:03.395Z,-2.98
2023-02-07T04:16:33.297Z,-2.45
2023-02-07T04:19:03.785Z,-2.49
2023-02-07T04:21:32.260Z,-2.74
2023-02-07T04:24:00.653Z,-2.87
2023-02-07T04:26:29.425Z,-3.09
2023-02-07T04:28:57.741Z,-3.22
2023-02-07T04:31:26.195Z,-2.75
2023-02-07T04:33:55.176Z,-2.48
2023-02-07T04:36:24.088Z,-2.53
2023-02-07T04:38:53.154Z,-2.76
2023-02-07T04:41:21.636Z,-3.04
2023-02-07T04:43:50.254Z,-3.19
2023-02-07T04:46:19.209Z,-2.91
2023-02-07T04:48:48.817Z,-2.53
2023-02-07T04:51:17.210Z,-2.71
2023-02-07T04:53:46.495Z,-2.94
2023-02-07T04:56:14.976Z,-3.08
2023-02-07T04:58:44.700Z,-3.12
2023-02-07T05:01:13.607Z,-2.75
2023-02-07T05:03:46.034Z,-2.48
2023-02-07T05:06:14.965Z,-2.72
2023-02-07T05:08:43.219Z,-2.78
2023-02-07T05:11:11.599Z,-2.97
2023-02-07T05:13:40.082Z,-3.11
2023-02-07T05:16:08.463Z,-2.69
2023-02-07T05:18:37.173Z,-2.27
2023-02-07T05:21:06.239Z,-2.74
2023-02-07T05:23:34.923Z,-2.89
2023-02-07T05:26:03.634Z,-3.01
2023-02-07T05:28:31.991Z,-2.90
2023-02-07T05:31:00.699Z,-2.60
2023-02-07T05:33:29.578Z,-2.37
2023-02-07T05:36:01.215Z,-2.54
2023-02-07T05:38:29.554Z,-2.69
2023-02-07T05:40:58.193Z,-2.90
2023-02-07T05:43:26.758Z,-3.03
2023-02-07T05:45:55.291Z,-2.99
2023-02-07T05:48:24.362Z,-2.64
2023-02-07T05:50:52.823Z,-2.36
2023-02-07T05:53:21.327Z,-2.66
2023-02-07T05:55:52.133Z,-2.82
2023-02-07T05:58:20.717Z,-2.93
2023-02-07T06:00:49.300Z,-2.94
2023-02-07T06:03:17.894Z,-2.69
2023-02-07T06:05:46.674Z,-2.36
2023-02-07T06:08:15.883Z,-2.37
2023-02-07T06:10:49.703Z,-2.75
2023-02-07T06:13:18.555Z,-2.98
2023-02-07T06:15:48.092Z,-3.04
2023-02-07T06:18:16.446Z,-2.83
2023-02-07T06:20:45.331Z,-2.44
2023-02-07T06:23:14.035Z,-2.44
2023-02-07T06:25:43.518Z,-2.60
2023-02-07T06:28:12.148Z,-2.77
2023-02-07T06:30:40.853Z,-3.04
2023-02-07T06:33:09.779Z,-2.90
2023-02-07T06:35:39.429Z,-2.59
2023-02-07T06:38:07.986Z,-2.50
2023-02-07T06:40:36.665Z,-2.86
2023-02-07T06:43:05.318Z,-2.75
2023-02-07T06:45:34.438Z,-2.78
2023-02-07T06:48:03.128Z,-2.57
2023-02-07T06:50:31.632Z,-2.28
2023-02-07T06:53:02.294Z,-2.35
2023-02-07T06:55:31.818Z,-2.42
2023-02-07T06:58:00.574Z,-2.58
2023-02-07T07:00:30.084Z,-2.69
2023-02-07T07:03:00.511Z,-2.39
2023-02-07T07:05:29.999Z,-2.32
2023-02-07T07:07:58.196Z,-2.35
2023-02-07T07:10:26.819Z,-2.43
2023-02-07T07:12:56.355Z,-2.50
2023-02-07T07:15:25.030Z,-2.49
2023-02-07T07:18:18.900Z,-2.12
2023-02-07T07:20:53.471Z,-2.07
2023-02-07T07:23:21.791Z,-2.37
2023-02-07T07:25:50.309Z,-2.47
2023-02-07T07:28:18.935Z,-2.53
2023-02-07T07:30:49.715Z,-2.28
2023-02-07T07:33:18.311Z,-1.88
2023-02-07T07:35:47.002Z,-2.06
2023-02-07T07:38:15.749Z,-2.34
2023-02-07T07:40:44.559Z,-2.33
2023-02-07T07:43:13.222Z,-2.12
2023-02-07T07:45:55.289Z,-1.98
2023-02-07T07:48:24.486Z,-1.83
2023-02-07T07:50:53.432Z,-1.81
2023-02-07T07:53:21.781Z,-1.93
2023-02-07T07:55:54.666Z,-1.97
2023-02-07T07:58:24.100Z,-2.01
2023-02-07T08:00:52.677Z,-1.81
2023-02-07T08:03:21.336Z,-1.64
2023-02-07T08:05:50.454Z,-1.47
2023-02-07T08:08:20.076Z,-1.53
2023-02-07T08:10:49.443Z,-1.72
2023-02-07T08:13:18.751Z,-1.92
2023-02-07T08:15:47.934Z,-1.94
2023-02-07T08:18:16.880Z,-1.58
2023-02-07T08:20:46.064Z,-1.42
2023-02-07T08:23:14.817Z,-1.33
2023-02-07T08:25:43.502Z,-1.42
2023-02-07T08:28:13.348Z,-1.65
2023-02-07T08:30:42.285Z,-1.85
2023-02-07T08:33:11.154Z,-1.71
2023-02-07T08:35:40.085Z,-1.29
2023-02-07T08:38:08.464Z,-1.33
2023-02-07T08:40:37.326Z,-1.39
2023-02-07T08:43:12.466Z,-1.47
2023-02-07T08:45:42.096Z,-1.51
2023-02-07T08:48:11.031Z,-1.60
2023-02-07T08:50:40.461Z,-1.50
2023-02-07T08:53:10.304Z,-1.28
2023-02-07T08:55:42.103Z,-1.27
2023-02-07T08:58:10.761Z,-1.19
2023-02-07T09:00:40.204Z,-1.46
2023-02-07T09:03:08.945Z,-1.79
2023-02-07T09:05:37.620Z,-1.63
2023-02-07T09:08:06.110Z,-1.17
2023-02-07T09:10:35.511Z,-0.98
2023-02-07T09:13:04.703Z,-1.19
2023-02-07T09:15:33.494Z,-1.46
2023-02-07T09:18:02.299Z,-1.58
2023-02-07T09:20:30.964Z,-1.54
2023-02-07T09:23:17.777Z,-1.21
2023-02-07T09:25:52.512Z,-1.13
2023-02-07T09:28:22.468Z,-1.04
2023-02-07T09:30:51.308Z,-0.86
2023-02-07T09:33:20.512Z,-1.06
2023-02-07T09:35:50.296Z,-1.32
2023-02-07T09:38:21.992Z,-1.17
2023-02-07T09:40:51.887Z,-0.79
2023-02-07T09:43:48.039Z,-1.02
2023-02-07T09:46:19.844Z,-1.23
2023-02-07T09:48:51.337Z,-1.14
2023-02-07T09:51:21.176Z,-1.48
2023-02-07T09:54:04.572Z,-1.53
2023-02-07T09:56:35.407Z,-0.98
2023-02-07T09:59:41.273Z,-0.80
2023-02-07T10:02:31.756Z,-1.02
2023-02-07T10:05:06.329Z,-0.90
2023-02-07T10:07:34.662Z,-1.11
2023-02-07T10:10:03.151Z,-1.13
2023-02-07T10:12:38.272Z,-0.77
2023-02-07T10:15:31.555Z,-0.54
2023-02-07T10:18:19.877Z,-0.56
2023-02-07T10:21:05.486Z,-0.68
2023-02-07T10:23:50.788Z,-0.87
2023-02-07T10:26:23.951Z,-0.98
2023-02-07T10:29:30.296Z,-0.76
2023-02-07T10:32:00.973Z,-0.48
2023-02-07T10:34:33.260Z,-0.67
2023-02-07T10:37:01.688Z,-0.76
2023-02-07T10:39:34.094Z,-0.95
2023-02-07T10:42:02.572Z,-1.07
2023-02-07T10:44:31.217Z,-0.84
2023-02-07T10:47:01.858Z,-0.59
2023-02-07T10:49:36.668Z,-0.35
2023-02-07T10:52:38.268Z,-0.46
2023-02-07T10:55:08.958Z,-0.73
2023-02-07T10:57:37.570Z,-0.84
2023-02-07T11:00:08.896Z,-0.93
2023-02-07T11:02:40.964Z,-0.84
2023-02-07T11:05:15.393Z,-0.28
2023-02-07T11:08:02.292Z,-0.07
2023-02-07T11:10:38.866Z,-0.14
2023-02-07T11:13:16.971Z,-0.26
2023-02-07T11:15:52.142Z,-0.45
2023-02-07T11:18:28.906Z,-0.68
2023-02-07T11:20:57.366Z,-0.62
2023-02-07T11:23:25.943Z,-0.31
2023-02-07T11:25:59.957Z,-0.31
2023-02-07T11:28:31.104Z,-0.49
2023-02-07T11:31:03.695Z,-0.62
2023-02-07T11:33:34.423Z,-0.80
2023-02-07T11:36:12.930Z,-0.97
2023-02-07T11:38:49.294Z,-0.95
2023-02-07T11:41:22.275Z,-0.74
2023-02-07T11:43:59.384Z,-0.56
2023-02-07T11:46:33.154Z,-0.34
2023-02-07T11:49:01.650Z,-0.20
2023-02-07T11:51:32.705Z,-0.54
2023-02-07T11:54:03.411Z,-0.94
2023-02-07T11:56:42.940Z,-1.19
2023-02-07T11:59:22.303Z,-0.95
2023-02-07T12:01:56.249Z,-0.62
2023-02-07T12:04:27.515Z,-0.52
2023-02-07T12:07:07.870Z,-0.75
2023-02-07T12:09:49.092Z,-0.67
2023-02-07T12:12:21.693Z,-0.82
2023-02-07T12:14:58.675Z,-0.85
2023-02-07T12:17:41.999Z,-0.38
2023-02-07T12:20:15.684Z,-0.36
2023-02-07T12:23:28.151Z,0.15
2023-02-07T12:26:07.946Z,-0.53
2023-02-07T12:29:14.213Z,-0.49
2023-02-07T12:32:03.083Z,-0.94
2023-02-07T12:35:01.968Z,-0.77
2023-02-07T12:37:58.719Z,-0.08
2023-02-07T12:40:35.279Z,0.04
2023-02-07T12:43:09.514Z,-0.26
2023-02-07T12:46:00.748Z,-0.27
2023-02-07T12:48:51.407Z,-0.45
2023-02-07T12:51:39.445Z,-0.82
2023-02-07T12:54:17.142Z,-1.08
2023-02-07T12:57:09.684Z,-0.12
2023-02-07T13:00:10.465Z,0.04
2023-02-07T13:10:39.460Z,-0.76
2023-02-07T13:13:36.617Z,-1.09
2023-02-07T13:16:20.157Z,-0.71
2023-02-07T13:19:22.313Z,-0.18
2023-02-07T13:22:04.616Z,-0.27
2023-02-07T13:24:33.537Z,-0.71
2023-02-07T13:27:04.964Z,-1.14
2023-02-07T13:29:34.557Z,-1.11
2023-02-07T13:32:12.586Z,-1.00
2023-02-07T13:35:01.022Z,-0.96
2023-02-07T13:38:02.475Z,-1.05
2023-02-07T13:40:57.483Z,-0.95
2023-02-07T13:43:47.996Z,-0.47
2023-02-07T13:46:46.050Z,-0.40
2023-02-07T13:49:41.795Z,-0.60
2023-02-07T13:52:14.536Z,-0.84
2023-02-07T13:55:18.664Z,-1.09
2023-02-07T13:58:06.508Z,-1.30
2023-02-07T14:01:01.060Z,-1.59
2023-02-07T14:03:32.614Z,-1.51
2023-02-07T14:06:27.447Z,-0.94
2023-02-07T14:09:01.922Z,-1.17
2023-02-07T14:11:53.691Z,-1.57
2023-02-07T14:14:38.965Z,-1.63
2023-02-07T14:17:13.586Z,-1.75
2023-02-07T14:19:43.298Z,-1.84
2023-02-07T14:22:15.017Z,-1.94
2023-02-07T14:25:03.921Z,-2.09
2023-02-07T14:27:39.408Z,-2.18
2023-02-07T14:30:20.138Z,-1.67
2023-02-07T14:33:07.755Z,-1.50
2023-02-07T14:36:09.433Z,-1.67
2023-02-07T14:38:41.897Z,-1.71
2023-02-07T14:41:12.928Z,-1.88
2023-02-07T14:43:50.553Z,-2.19
2023-02-07T14:46:31.699Z,-2.39
2023-02-07T14:49:04.006Z,-2.47
2023-02-07T14:51:40.255Z,-2.02
2023-02-07T14:54:27.722Z,-1.62
2023-02-07T14:57:15.496Z,-1.54
2023-02-07T14:59:45.134Z,-1.82
2023-02-07T15:02:29.658Z,-1.99
2023-02-07T15:04:58.772Z,-2.27
2023-02-07T15:07:27.143Z,-2.37
2023-02-07T15:09:55.718Z,-2.44
2023-02-07T15:12:28.024Z,-2.55
2023-02-07T15:14:57.705Z,-2.66
2023-02-07T15:17:31.026Z,-2.33
2023-02-07T15:20:05.455Z,-1.52
2023-02-07T15:22:34.736Z,-1.30
2023-02-07T15:25:03.390Z,-1.53
2023-02-07T15:27:32.288Z,-1.89
2023-02-07T15:30:02.095Z,-1.98
2023-02-07T15:32:34.383Z,-2.19
2023-02-07T15:35:22.725Z,-2.43
2023-02-07T15:37:51.902Z,-2.66
2023-02-07T15:40:24.856Z,-2.86
2023-02-07T15:42:56.502Z,-3.08
2023-02-07T15:45:31.692Z,-3.08
2023-02-07T15:48:09.495Z,-2.94
2023-02-07T15:50:38.988Z,-2.14
2023-02-07T15:53:08.849Z,-1.95
2023-02-07T15:55:45.647Z,-1.96
2023-02-07T15:58:33.537Z,-2.09
2023-02-07T16:01:15.871Z,-2.39
2023-02-07T16:03:45.562Z,-2.59
2023-02-07T16:06:18.520Z,-2.82
2023-02-07T16:09:05.535Z,-2.92
2023-02-07T16:11:36.704Z,-3.13
2023-02-07T16:14:25.588Z,-3.13
2023-02-07T16:16:55.310Z,-2.64
2023-02-07T16:19:31.298Z,-2.54
2023-02-07T16:22:13.708Z,-2.65
2023-02-07T16:24:44.155Z,-2.72
2023-02-07T16:27:23.951Z,-2.90
2023-02-07T16:29:52.384Z,-3.15
2023-02-07T16:32:21.148Z,-3.39
2023-02-07T16:34:59.666Z,-3.53
2023-02-07T16:37:28.816Z,-3.68
2023-02-07T16:39:57.754Z,-3.80
2023-02-07T16:42:26.464Z,-3.38
2023-02-07T16:44:55.031Z,-2.94
2023-02-07T16:47:24.019Z,-2.95
2023-02-07T16:49:52.941Z,-3.20
2023-02-07T16:52:23.743Z,-3.29
2023-02-07T16:54:52.599Z,-3.57
2023-02-07T16:57:21.144Z,-3.71
2023-02-07T16:59:49.691Z,-3.92
2023-02-07T17:02:20.649Z,-4.06
2023-02-07T17:04:49.944Z,-4.28
2023-02-07T17:07:18.632Z,-4.38
2023-02-07T17:09:50.780Z,-4.45
2023-02-07T17:12:19.194Z,-4.50
2023-02-07T17:14:47.946Z,-4.51
2023-02-07T17:17:18.884Z,-4.31
2023-02-07T17:19:47.874Z,-3.44
2023-02-07T17:22:16.667Z,-2.99
2023-02-07T17:24:46.475Z,-2.96
2023-02-07T17:27:15.289Z,-3.15
2023-02-07T17:29:45.278Z,-3.40
2023-02-07T17:32:14.879Z,-3.64
2023-02-07T17:34:43.189Z,-3.85
2023-02-07T17:44:46.737Z,-4.19
2023-02-07T17:47:15.183Z,-4.35
2023-02-07T17:49:43.587Z,-4.39
2023-02-07T17:52:14.197Z,-4.46
2023-02-07T17:54:44.826Z,-4.51
2023-02-07T17:57:13.874Z,-4.57
2023-02-07T18:01:05.982Z,-4.63
2023-02-07T18:03:34.347Z,-4.70
2023-02-07T18:06:03.332Z,-4.75
2023-02-07T18:08:31.756Z,-4.80
2023-02-07T18:11:04.486Z,-4.85
2023-02-07T18:13:33.642Z,-4.91
2023-02-07T18:16:01.972Z,-4.95
2023-02-07T18:18:34.862Z,-4.98
2023-02-07T18:21:04.048Z,-5.02
2023-02-07T18:23:32.625Z,-5.05
2023-02-07T18:26:01.327Z,-5.10
2023-02-07T18:28:29.792Z,-5.15
2023-02-07T18:30:58.627Z,-5.19
2023-02-07T18:33:27.780Z,-5.22
2023-02-07T18:35:58.000Z,-5.24
2023-02-07T18:38:26.496Z,-5.26
2023-02-07T18:40:55.263Z,-5.28
2023-02-07T18:43:23.952Z,-5.30
2023-02-07T18:45:52.700Z,-5.36
2023-02-07T18:48:21.221Z,-5.46
2023-02-07T18:50:49.909Z,-5.57
2023-02-07T18:53:20.448Z,-5.70
2023-02-07T18:55:50.360Z,-5.84
2023-02-07T18:58:18.932Z,-5.97
2023-02-07T19:00:47.439Z,-5.90
2023-02-07T19:03:16.208Z,-5.22
2023-02-07T19:05:46.011Z,-4.81
2023-02-07T19:08:14.406Z,-4.75
2023-02-07T19:10:42.867Z,-4.94
2023-02-07T19:13:11.497Z,-5.18
2023-02-07T19:15:40.095Z,-5.49
2023-02-07T19:18:08.718Z,-5.82
2023-02-07T19:20:38.343Z,-5.94
2023-02-07T19:23:07.633Z,-6.13
2023-02-07T19:25:36.218Z,-6.33
2023-02-07T19:28:05.342Z,-6.50
2023-02-07T19:30:39.459Z,-6.64
2023-02-07T19:33:08.103Z,-6.78
2023-02-07T19:35:36.827Z,-6.90
2023-02-07T19:38:05.789Z,-7.04
2023-02-07T19:40:35.288Z,-7.18
2023-02-07T19:43:04.305Z,-6.90
2023-02-07T19:45:34.197Z,-5.91
2023-02-07T19:48:02.879Z,-5.39
2023-02-07T19:50:32.698Z,-5.43
2023-02-07T19:53:03.116Z,-5.68
2023-02-07T19:55:31.389Z,-5.97
2023-02-07T19:58:00.103Z,-6.26
2023-02-07T20:00:29.997Z,-6.55
2023-02-07T20:02:58.987Z,-6.80
2023-02-07T20:05:27.887Z,-7.04
2023-02-07T20:07:58.105Z,-7.37
2023-02-07T20:10:27.305Z,-7.73
2023-02-07T20:12:55.878Z,-8.02
2023-02-07T20:15:25.182Z,-7.69
2023-02-07T20:17:57.045Z,-6.88
2023-02-07T20:20:25.508Z,-6.62
2023-02-07T20:22:54.117Z,-6.77
2023-02-07T20:25:22.832Z,-7.11
2023-02-07T20:27:51.504Z,-7.42
2023-02-07T20:30:20.463Z,-7.72
2023-02-07T20:32:48.877Z,-7.98
2023-02-07T20:35:17.633Z,-8.24
2023-02-07T20:37:46.143Z,-8.41
2023-02-07T20:40:16.171Z,-8.04
2023-02-07T20:42:44.721Z,-7.24
2023-02-07T20:45:13.310Z,-7.02
2023-02-07T20:47:42.113Z,-7.08
2023-02-07T20:50:10.870Z,-7.21
2023-02-07T20:52:39.818Z,-7.49
2023-02-07T20:55:09.177Z,-7.80
2023-02-07T20:57:37.586Z,-8.10
2023-02-07T21:00:08.783Z,-8.24
2023-02-07T21:02:37.405Z,-8.25
2023-02-07T21:05:06.639Z,-7.68
2023-02-07T21:07:35.083Z,-7.09
2023-02-07T21:10:05.685Z,-7.15
2023-02-07T21:12:34.365Z,-7.30
2023-02-07T21:15:03.084Z,-7.41
2023-02-07T21:17:31.945Z,-7.55
2023-02-07T21:20:00.314Z,-7.81
2023-02-07T21:22:28.922Z,-8.04
2023-02-07T21:24:57.889Z,-8.23
2023-02-07T21:27:26.878Z,-8.28
2023-02-07T21:29:56.919Z,-7.56
2023-02-07T21:32:25.381Z,-6.96
2023-02-07T21:34:57.299Z,-7.03
2023-02-07T21:37:26.037Z,-7.35
2023-02-07T21:39:58.597Z,-7.64
2023-02-07T21:42:27.193Z,-7.98
2023-02-07T21:44:55.769Z,-8.26
2023-02-07T21:47:24.346Z,-8.45
2023-02-07T21:49:53.441Z,-8.61
2023-02-07T21:52:22.045Z,-8.36
2023-02-07T21:54:50.916Z,-7.45
2023-02-07T21:57:19.340Z,-7.31
2023-02-07T21:59:48.302Z,-7.51
2023-02-07T22:02:16.897Z,-7.78
2023-02-07T22:04:45.869Z,-7.99
2023-02-07T22:07:14.346Z,-8.34
2023-02-07T22:09:42.726Z,-8.56
2023-02-07T22:12:11.440Z,-8.79
2023-02-07T22:14:39.993Z,-8.71
2023-02-07T22:17:08.371Z,-8.06
2023-02-07T22:19:37.279Z,-7.84
2023-02-07T22:22:06.458Z,-7.87
2023-02-07T22:24:35.809Z,-7.90
2023-02-07T22:27:04.258Z,-8.07
2023-02-07T22:29:32.923Z,-8.30
2023-02-07T22:32:01.847Z,-8.53
2023-02-07T22:34:30.909Z,-8.67
2023-02-07T22:36:59.384Z,-8.74
2023-02-07T22:39:28.105Z,-8.04
2023-02-07T22:41:57.374Z,-7.66
2023-02-07T22:44:25.753Z,-7.89
2023-02-07T22:46:54.349Z,-8.20
2023-02-07T22:49:23.017Z,-8.46
2023-02-07T22:51:52.213Z,-8.63
2023-02-07T22:54:20.602Z,-8.86
2023-02-07T22:56:49.070Z,-9.07
2023-02-07T22:59:17.650Z,-8.87
2023-02-07T23:01:46.242Z,-8.06
2023-02-07T23:04:17.837Z,-7.88
2023-02-07T23:06:46.852Z,-8.03
2023-02-07T23:09:15.888Z,-8.28
2023-02-07T23:11:44.158Z,-8.57
2023-02-07T23:14:13.583Z,-8.83
2023-02-07T23:16:42.362Z,-9.08
2023-02-07T23:19:15.456Z,-9.13
2023-02-07T23:21:43.929Z,-8.45
2023-02-07T23:24:12.900Z,-8.04
2023-02-07T23:26:41.381Z,-8.09
2023-02-07T23:29:09.991Z,-8.27
2023-02-07T23:31:38.873Z,-8.62
2023-02-07T23:34:09.697Z,-8.92
2023-02-07T23:36:38.891Z,-9.26
2023-02-07T23:39:07.367Z,-9.36
2023-02-07T23:41:36.258Z,-8.74
2023-02-07T23:44:04.971Z,-8.16
2023-02-07T23:46:34.252Z,-8.12
2023-02-07T23:49:05.604Z,-8.35
2023-02-07T23:51:34.000Z,-8.72
2023-02-07T23:54:03.486Z,-9.10
2023-02-07T23:56:33.597Z,-9.43
2023-02-07T23:59:02.098Z,-9.59
